createdAt,value
2019-03-20T00:00:19.904Z,99.90
2019-03-20T00:02:50.270Z,99.90
2019-03-20T00:05:19.903Z,99.90
2019-03-20T00:07:49.547Z,99.90
2019-03-20T00:10:19.810Z,99.90
2019-03-20T00:12:49.470Z,99.90
2019-03-20T00:15:19.113Z,99.90
2019-03-20T00:17:48.850Z,99.90
2019-03-20T00:20:18.495Z,99.90
2019-03-20T00:22:48.159Z,99.90
2019-03-20T00:25:17.838Z,99.90
2019-03-20T00:27:47.463Z,99.90
2019-03-20T00:30:17.105Z,99.90
2019-03-20T00:32:46.945Z,99.90
2019-03-20T00:35:16.686Z,99.90
2019-03-20T00:37:46.314Z,99.90
2019-03-20T00:40:16.285Z,99.90
2019-03-20T00:42:46.154Z,99.90
2019-03-20T00:45:15.859Z,99.90
2019-03-20T00:47:45.509Z,99.90
2019-03-20T00:50:15.979Z,99.90
2019-03-20T00:52:45.715Z,99.90
2019-03-20T00:55:16.058Z,99.90
2019-03-20T00:57:45.877Z,99.90
2019-03-20T01:00:17.322Z,99.90
2019-03-20T01:02:46.982Z,99.90
2019-03-20T01:05:16.884Z,99.90
2019-03-20T01:07:46.897Z,99.90
2019-03-20T01:10:18.111Z,99.90
2019-03-20T01:12:47.803Z,99.90
2019-03-20T01:15:17.465Z,99.90
2019-03-20T01:17:47.301Z,99.90
2019-03-20T01:20:17.784Z,99.90
2019-03-20T01:22:47.483Z,99.90
2019-03-20T01:25:17.208Z,99.90
2019-03-20T01:27:46.842Z,99.90
2019-03-20T01:30:33.356Z,99.90
2019-03-20T01:33:04.453Z,99.90
2019-03-20T01:35:34.109Z,99.90
2019-03-20T01:38:03.737Z,99.90
2019-03-20T01:40:33.347Z,99.90
2019-03-20T01:43:02.959Z,99.90
2019-03-20T01:45:32.580Z,99.90
2019-03-20T01:48:02.412Z,99.90
2019-03-20T01:50:32.011Z,99.90
2019-03-20T01:53:01.631Z,99.90
2019-03-20T01:55:31.222Z,99.90
2019-03-20T01:58:00.868Z,99.90
2019-03-20T02:00:30.579Z,99.90
2019-03-20T02:03:00.190Z,99.90
2019-03-20T02:05:35.625Z,99.90
2019-03-20T02:08:01.102Z,99.90
2019-03-20T02:10:30.729Z,99.90
2019-03-20T02:13:00.347Z,99.90
2019-03-20T02:15:38.991Z,99.90
2019-03-20T02:18:01.234Z,99.90
2019-03-20T02:20:30.854Z,99.90
2019-03-20T02:23:00.482Z,99.90
2019-03-20T02:25:32.272Z,99.90
2019-03-20T02:28:01.401Z,99.90
2019-03-20T02:30:30.999Z,99.90
2019-03-20T02:33:00.628Z,99.90
2019-03-20T02:35:30.261Z,99.90
2019-03-20T02:37:59.851Z,99.90
2019-03-20T02:40:29.493Z,99.90
2019-03-20T02:42:59.089Z,99.90
2019-03-20T02:45:28.685Z,99.90
2019-03-20T02:47:58.298Z,99.90
2019-03-20T02:50:27.902Z,99.90
2019-03-20T03:55:31.420Z,99.90
2019-03-20T03:58:01.063Z,99.90
2019-03-20T04:00:30.685Z,99.90
2019-03-20T04:03:00.265Z,99.90
2019-03-20T04:05:29.895Z,99.90
2019-03-20T04:07:59.476Z,99.90
2019-03-20T04:10:29.112Z,99.90
2019-03-20T04:12:58.728Z,99.90
2019-03-20T04:15:28.314Z,99.90
2019-03-20T04:17:57.884Z,99.90
2019-03-20T04:20:27.485Z,99.90
2019-03-20T04:22:57.090Z,99.90
2019-03-20T04:25:26.688Z,99.90
2019-03-20T04:27:59.027Z,99.90
2019-03-20T04:30:28.660Z,99.90
2019-03-20T04:32:58.249Z,99.90
2019-03-20T04:35:27.833Z,99.90
2019-03-20T04:37:57.402Z,99.90
2019-03-20T04:40:27.005Z,99.90
2019-03-20T04:42:56.571Z,99.90
2019-03-20T04:45:26.170Z,99.90
2019-03-20T04:47:55.757Z,99.90
2019-03-20T04:50:25.417Z,99.90
2019-03-20T04:52:54.966Z,99.90
2019-03-20T04:55:24.561Z,99.90
2019-03-20T04:57:54.180Z,99.90
2019-03-20T05:00:23.782Z,99.90
2019-03-20T05:02:53.388Z,99.90
2019-03-20T05:05:22.977Z,99.90
2019-03-20T05:07:52.575Z,99.90
2019-03-20T05:10:22.158Z,99.90
2019-03-20T05:12:51.758Z,99.90
2019-03-20T05:15:21.333Z,99.90
2019-03-20T05:17:50.919Z,99.90
2019-03-20T05:20:20.537Z,99.90
2019-03-20T05:22:50.148Z,99.90
2019-03-20T05:25:19.732Z,99.90
2019-03-20T05:27:49.335Z,99.90
2019-03-20T05:30:18.928Z,99.90
2019-03-20T05:32:48.549Z,99.90
2019-03-20T05:35:18.139Z,99.90
2019-03-20T05:37:47.722Z,99.90
2019-03-20T05:40:17.344Z,99.90
2019-03-20T05:42:46.968Z,99.90
2019-03-20T05:45:16.588Z,99.90
2019-03-20T05:47:46.241Z,99.90
2019-03-20T05:50:15.836Z,99.90
2019-03-20T05:52:45.467Z,99.90
2019-03-20T05:55:15.271Z,99.90
2019-03-20T05:57:44.867Z,99.90
2019-03-20T06:00:15.199Z,99.90
2019-03-20T06:02:44.793Z,99.90
2019-03-20T06:05:14.477Z,99.90
2019-03-20T06:07:44.062Z,99.90
2019-03-20T06:10:13.921Z,99.90
2019-03-20T06:12:43.671Z,99.90
2019-03-20T06:15:13.386Z,99.90
2019-03-20T06:17:43.444Z,99.90
2019-03-20T06:20:13.067Z,99.90
2019-03-20T06:22:42.693Z,99.90
2019-03-20T06:25:12.258Z,99.90
2019-03-20T06:27:41.842Z,99.90
2019-03-20T06:30:13.996Z,99.90
2019-03-20T06:32:43.595Z,99.90
2019-03-20T06:35:13.318Z,99.90
2019-03-20T06:37:42.888Z,99.90
2019-03-20T06:40:12.726Z,99.90
2019-03-20T06:42:42.330Z,99.90
2019-03-20T06:45:12.531Z,99.90
2019-03-20T06:47:42.107Z,99.90
2019-03-20T06:50:13.668Z,99.90
2019-03-20T06:52:43.277Z,99.90
2019-03-20T06:55:12.989Z,99.90
2019-03-20T06:57:42.582Z,99.90
2019-03-20T07:00:39.463Z,99.90
2019-03-20T07:03:12.231Z,99.90
2019-03-20T07:06:12.131Z,99.90
2019-03-20T07:08:45.837Z,99.90
2019-03-20T07:11:17.375Z,99.90
2019-03-20T07:13:46.952Z,99.90
2019-03-20T07:16:16.557Z,99.90
2019-03-20T07:18:46.133Z,99.90
2019-03-20T07:21:15.742Z,99.90
2019-03-20T07:23:45.333Z,99.90
2019-03-20T07:26:14.935Z,99.90
2019-03-20T07:28:44.530Z,99.90
2019-03-20T07:31:15.604Z,99.90
2019-03-20T07:33:45.543Z,99.90
2019-03-20T07:36:15.179Z,99.90
2019-03-20T07:38:44.771Z,99.90
2019-03-20T07:41:14.381Z,99.90
2019-03-20T07:43:43.980Z,99.90
2019-03-20T07:46:13.571Z,99.90
2019-03-20T07:48:43.173Z,99.90
2019-03-20T07:51:12.791Z,99.90
2019-03-20T07:53:42.379Z,99.90
2019-03-20T07:56:11.987Z,99.90
2019-03-20T07:58:41.603Z,99.90
2019-03-20T08:01:11.195Z,99.90
2019-03-20T08:03:40.798Z,99.90
2019-03-20T08:06:10.398Z,99.90
2019-03-20T08:08:40.022Z,99.90
2019-03-20T08:11:09.638Z,99.90
2019-03-20T08:13:39.232Z,99.90
2019-03-20T08:16:08.848Z,99.90
2019-03-20T08:18:38.452Z,99.90
2019-03-20T08:21:08.038Z,99.90
2019-03-20T08:23:37.640Z,99.90
2019-03-20T08:26:07.228Z,99.90
2019-03-20T08:28:36.828Z,99.90
2019-03-20T08:31:06.415Z,99.90
2019-03-20T08:33:36.031Z,99.90
2019-03-20T08:36:05.639Z,99.90
2019-03-20T08:38:35.277Z,99.90
2019-03-20T08:41:04.857Z,99.90
2019-03-20T08:43:34.444Z,99.90
2019-03-20T08:46:04.092Z,99.90
2019-03-20T08:48:33.696Z,99.90
2019-03-20T08:51:03.270Z,99.90
2019-03-20T08:53:32.876Z,99.90
2019-03-20T08:56:02.463Z,99.90
2019-03-20T08:58:32.065Z,99.90
2019-03-20T09:01:01.793Z,99.90
2019-03-20T09:03:31.382Z,99.90
2019-03-20T09:06:00.993Z,99.90
2019-03-20T09:08:30.611Z,99.90
2019-03-20T09:11:00.211Z,99.90
2019-03-20T09:13:29.782Z,99.90
2019-03-20T09:15:59.380Z,99.90
2019-03-20T09:18:28.966Z,99.90
2019-03-20T09:20:58.583Z,99.90
2019-03-20T09:23:28.163Z,99.90
2019-03-20T09:25:57.766Z,99.90
2019-03-20T09:28:27.339Z,99.90
2019-03-20T09:30:56.968Z,99.90
2019-03-20T09:33:26.583Z,99.90
2019-03-20T09:35:56.559Z,99.90
2019-03-20T09:38:26.157Z,99.90
2019-03-20T09:40:55.764Z,99.90
2019-03-20T09:43:25.372Z,99.90
2019-03-20T09:45:56.888Z,99.90
2019-03-20T09:48:26.219Z,99.90
2019-03-20T09:50:55.816Z,99.90
2019-03-20T09:53:25.400Z,99.90
2019-03-20T09:55:55.039Z,99.90
2019-03-20T09:58:24.635Z,99.90
2019-03-20T10:00:54.251Z,99.90
2019-03-20T10:03:23.811Z,99.90
2019-03-20T10:05:53.419Z,99.90
2019-03-20T10:08:23.012Z,99.90
2019-03-20T10:10:52.640Z,99.90
2019-03-20T10:13:22.231Z,99.90
2019-03-20T10:15:51.870Z,99.90
2019-03-20T10:18:21.478Z,99.90
2019-03-20T10:20:51.076Z,99.90
2019-03-20T10:23:20.697Z,99.90
2019-03-20T10:25:50.332Z,99.90
2019-03-20T10:28:19.954Z,99.90
2019-03-20T10:30:49.525Z,99.90
2019-03-20T10:33:19.104Z,99.90
2019-03-20T10:35:50.570Z,99.90
2019-03-20T10:38:19.935Z,99.90
2019-03-20T10:40:49.526Z,99.90
2019-03-20T10:43:19.141Z,99.90
2019-03-20T10:45:48.730Z,99.90
2019-03-20T10:48:18.369Z,99.90
2019-03-20T10:50:47.961Z,99.90
2019-03-20T10:53:17.572Z,99.90
2019-03-20T10:55:47.158Z,99.90
2019-03-20T10:58:16.766Z,99.90
2019-03-20T11:00:46.409Z,99.90
2019-03-20T11:03:16.163Z,99.90
2019-03-20T11:05:45.778Z,99.90
2019-03-20T11:08:15.433Z,99.90
2019-03-20T11:10:44.988Z,99.90
2019-03-20T11:13:14.591Z,99.90
2019-03-20T11:15:44.212Z,99.90
2019-03-20T11:18:13.809Z,99.90
2019-03-20T11:20:43.398Z,99.90
2019-03-20T11:23:13.039Z,99.90
2019-03-20T11:25:42.707Z,99.90
2019-03-20T11:28:12.307Z,99.90
2019-03-20T11:30:41.876Z,99.90
2019-03-20T11:33:11.472Z,99.90
2019-03-20T11:35:42.545Z,99.90
2019-03-20T11:38:12.311Z,99.90
2019-03-20T11:40:41.911Z,99.90
2019-03-20T11:43:11.508Z,99.90
2019-03-20T11:45:41.108Z,99.90
2019-03-20T11:48:10.732Z,99.90
2019-03-20T11:50:40.440Z,99.90
2019-03-20T11:53:10.228Z,99.90
2019-03-20T11:55:39.815Z,99.90
2019-03-20T11:58:09.401Z,99.90
2019-03-20T12:00:39.013Z,99.90
2019-03-20T12:03:08.705Z,99.90
2019-03-20T12:05:38.307Z,99.90
2019-03-20T12:08:07.889Z,99.90
2019-03-20T12:10:37.495Z,99.90
2019-03-20T12:13:07.217Z,99.90
2019-03-20T12:15:36.831Z,99.90
2019-03-20T12:18:06.527Z,99.90
2019-03-20T12:20:36.141Z,99.90
2019-03-20T12:23:05.739Z,99.90
2019-03-20T12:25:35.519Z,99.90
2019-03-20T12:28:05.212Z,99.90
2019-03-20T12:30:34.951Z,99.90
2019-03-20T12:33:05.853Z,99.90
2019-03-20T12:35:35.430Z,99.90
2019-03-20T12:38:13.810Z,99.90
2019-03-20T12:40:36.492Z,99.90
2019-03-20T12:43:06.522Z,99.90
2019-03-20T12:45:36.159Z,99.90
2019-03-20T12:48:06.335Z,99.90
2019-03-20T12:50:35.970Z,99.90
2019-03-20T12:53:05.927Z,99.90
2019-03-20T12:55:35.745Z,99.90
2019-03-20T12:58:05.459Z,99.90
2019-03-20T13:00:35.064Z,99.90
2019-03-20T13:03:04.677Z,99.90
2019-03-20T13:05:34.261Z,99.90
2019-03-20T13:08:06.096Z,99.90
2019-03-20T13:10:35.457Z,99.90
2019-03-20T13:13:05.413Z,97.60
2019-03-20T13:15:34.986Z,93.10
2019-03-20T13:18:04.717Z,91.80
2019-03-20T13:20:34.302Z,92.20
2019-03-20T13:23:08.926Z,90.60
2019-03-20T13:25:38.521Z,87.60
2019-03-20T13:28:08.162Z,89.40
2019-03-20T13:30:48.949Z,90.90
2019-03-20T13:33:25.575Z,91.00
2019-03-20T13:35:49.978Z,94.50
2019-03-20T13:38:19.682Z,97.40
2019-03-20T13:40:49.282Z,98.60
2019-03-20T13:43:18.923Z,99.90
2019-03-20T13:45:48.623Z,99.90
2019-03-20T13:48:18.231Z,99.90
2019-03-20T13:50:47.832Z,99.90
2019-03-20T13:53:17.467Z,99.90
2019-03-20T13:55:47.066Z,99.90
2019-03-20T13:58:16.696Z,99.90
2019-03-20T14:00:46.295Z,99.90
2019-03-20T14:03:15.927Z,99.90
2019-03-20T14:05:45.499Z,99.90
2019-03-20T14:08:15.103Z,99.90
2019-03-20T14:10:50.225Z,99.90
2019-03-20T14:13:15.975Z,99.90
2019-03-20T14:15:45.561Z,99.90
2019-03-20T14:18:15.142Z,99.90
2019-03-20T14:20:44.742Z,99.90
2019-03-20T14:23:14.355Z,99.90
2019-03-20T14:25:43.954Z,99.90
2019-03-20T14:28:13.573Z,99.90
2019-03-20T14:30:43.173Z,99.90
2019-03-20T14:33:12.775Z,99.90
2019-03-20T14:35:42.389Z,99.90
2019-03-20T14:38:11.997Z,99.90
2019-03-20T14:40:41.595Z,99.90
2019-03-20T14:43:11.266Z,99.90
2019-03-20T14:45:40.908Z,99.90
2019-03-20T14:48:10.544Z,99.90
2019-03-20T14:50:40.161Z,99.90
2019-03-20T14:53:09.743Z,99.90
2019-03-20T14:55:39.355Z,99.90
2019-03-20T14:58:08.944Z,99.90
2019-03-20T15:00:38.540Z,99.90
2019-03-20T15:03:08.154Z,99.90
2019-03-20T15:05:37.780Z,99.90
2019-03-20T15:08:07.404Z,99.90
2019-03-20T15:10:45.666Z,99.90
2019-03-20T15:13:08.392Z,99.90
2019-03-20T15:15:46.781Z,99.90
2019-03-20T15:18:16.378Z,99.90
2019-03-20T15:20:46.012Z,99.90
2019-03-20T15:23:15.606Z,99.90
2019-03-20T15:25:45.235Z,99.90
2019-03-20T15:28:14.845Z,99.90
2019-03-20T15:30:44.485Z,99.90
2019-03-20T15:33:14.119Z,99.90
2019-03-20T15:35:43.755Z,99.90
2019-03-20T15:38:13.366Z,99.90
2019-03-20T15:40:43.030Z,99.90
2019-03-20T15:43:12.623Z,99.90
2019-03-20T15:45:42.238Z,99.90
2019-03-20T15:48:11.858Z,99.90
2019-03-20T15:50:41.466Z,99.90
2019-03-20T15:53:11.106Z,99.90
2019-03-20T15:55:40.731Z,99.90
2019-03-20T15:58:10.467Z,99.90
2019-03-20T16:00:40.072Z,99.90
2019-03-20T16:03:12.234Z,99.90
2019-03-20T16:05:41.922Z,99.90
2019-03-20T16:08:11.556Z,99.90
2019-03-20T16:10:41.199Z,99.90
2019-03-20T16:13:10.869Z,99.90
2019-03-20T16:15:40.482Z,99.90
2019-03-20T16:18:10.111Z,99.90
2019-03-20T16:20:39.728Z,99.90
2019-03-20T16:23:09.369Z,99.90
2019-03-20T16:25:38.991Z,99.90
2019-03-20T16:28:08.611Z,99.90
2019-03-20T16:30:38.212Z,99.90
2019-03-20T16:33:07.839Z,99.90
2019-03-20T16:35:37.465Z,99.90
2019-03-20T16:38:07.187Z,99.90
2019-03-20T16:40:36.782Z,99.90
2019-03-20T16:43:06.428Z,99.90
2019-03-20T16:45:36.053Z,99.90
2019-03-20T16:48:06.371Z,99.90
2019-03-20T16:50:35.996Z,99.90
2019-03-20T16:53:05.733Z,99.90
2019-03-20T16:55:35.357Z,99.90
2019-03-20T16:58:04.974Z,99.90
2019-03-20T17:00:34.697Z,99.90
2019-03-20T17:03:04.297Z,99.90
2019-03-20T17:05:33.904Z,99.90
2019-03-20T17:08:03.625Z,99.90
2019-03-20T17:10:35.401Z,99.90
2019-03-20T17:13:06.091Z,99.90
2019-03-20T17:15:35.726Z,99.90
2019-03-20T17:18:06.300Z,99.90
2019-03-20T17:20:35.913Z,99.90
2019-03-20T17:23:07.803Z,99.90
2019-03-20T17:25:37.856Z,99.90
2019-03-20T17:28:07.704Z,99.90
2019-03-20T17:30:37.793Z,99.90
2019-03-20T17:33:07.465Z,99.90
2019-03-20T17:35:37.120Z,99.90
2019-03-20T17:38:06.824Z,99.90
2019-03-20T17:40:36.474Z,99.90
2019-03-20T17:43:07.105Z,99.90
2019-03-20T17:45:36.748Z,99.90
2019-03-20T17:48:06.471Z,99.90
2019-03-20T17:50:36.355Z,99.90
2019-03-20T17:53:06.267Z,99.90
2019-03-20T17:55:36.024Z,99.90
2019-03-20T17:58:06.250Z,99.90
2019-03-20T18:00:38.127Z,99.90
2019-03-20T18:03:08.249Z,99.90
2019-03-20T18:05:37.884Z,99.90
2019-03-20T18:08:07.615Z,99.90
2019-03-20T18:10:37.605Z,99.90
2019-03-20T18:13:07.684Z,99.90
2019-03-20T18:15:37.415Z,99.90
2019-03-20T18:18:07.646Z,99.90
2019-03-20T18:20:37.547Z,99.90
2019-03-20T18:23:07.762Z,99.90
2019-03-20T18:25:37.405Z,99.90
2019-03-20T18:28:07.244Z,99.90
2019-03-20T18:30:37.310Z,99.90
2019-03-20T18:33:07.140Z,99.90
2019-03-20T18:35:36.741Z,99.90
2019-03-20T18:38:06.972Z,99.90
2019-03-20T18:40:36.584Z,99.90
2019-03-20T18:43:06.311Z,99.90
2019-03-20T18:45:35.941Z,99.90
2019-03-20T18:48:05.849Z,99.90
2019-03-20T18:50:35.454Z,99.90
2019-03-20T18:53:05.197Z,99.90
2019-03-20T18:55:34.788Z,99.90
2019-03-20T18:58:04.555Z,99.90
2019-03-20T19:00:34.239Z,99.90
2019-03-20T19:03:04.239Z,99.90
2019-03-20T19:05:58.482Z,99.90
2019-03-20T19:08:28.172Z,99.90
2019-03-20T19:10:57.864Z,99.90
2019-03-20T19:13:27.486Z,99.90
2019-03-20T19:15:57.090Z,99.90
2019-03-20T19:18:26.683Z,99.90
2019-03-20T19:20:56.271Z,99.90
2019-03-20T19:23:25.888Z,99.90
2019-03-20T19:25:55.507Z,99.90
2019-03-20T19:28:25.129Z,99.90
2019-03-20T19:30:54.773Z,99.90
2019-03-20T19:33:24.390Z,99.90
2019-03-20T19:35:54.109Z,99.90
2019-03-20T19:38:34.266Z,99.90
2019-03-20T19:40:55.055Z,99.90
2019-03-20T19:43:24.687Z,99.90
2019-03-20T19:45:54.300Z,99.90
2019-03-20T19:48:23.942Z,99.90
2019-03-20T19:50:53.578Z,99.90
2019-03-20T19:53:23.222Z,99.90
2019-03-20T19:55:52.815Z,99.90
2019-03-20T19:58:22.438Z,99.90
2019-03-20T20:00:52.072Z,99.90
2019-03-20T20:03:21.696Z,99.90
2019-03-20T20:05:51.317Z,99.90
2019-03-20T20:08:20.928Z,99.90
2019-03-20T20:10:50.600Z,99.90
2019-03-20T20:13:20.251Z,99.90
2019-03-20T20:15:49.903Z,99.90
2019-03-20T20:18:19.528Z,99.90
2019-03-20T20:20:49.177Z,99.90
2019-03-20T20:23:18.791Z,99.90
2019-03-20T20:25:48.408Z,99.90
2019-03-20T20:28:18.037Z,99.90
2019-03-20T20:30:47.669Z,99.90
2019-03-20T20:33:17.293Z,99.90
2019-03-20T20:35:46.924Z,99.90
2019-03-20T20:38:16.592Z,99.90
2019-03-20T20:40:46.223Z,99.90
2019-03-20T20:43:15.847Z,99.90
2019-03-20T20:45:45.474Z,99.90
2019-03-20T20:48:15.101Z,99.90
2019-03-20T20:50:44.757Z,99.90
2019-03-20T20:53:14.375Z,99.90
2019-03-20T20:55:44.026Z,99.90
2019-03-20T20:58:13.665Z,99.90
2019-03-20T21:00:43.315Z,99.90
2019-03-20T21:03:12.923Z,99.90
2019-03-20T21:05:42.546Z,99.90
2019-03-20T21:08:12.187Z,99.90
2019-03-20T21:10:41.829Z,99.90
2019-03-20T21:13:11.434Z,99.90
2019-03-20T21:15:43.425Z,99.90
2019-03-20T21:19:01.718Z,99.90
2019-03-20T21:22:17.882Z,99.90
2019-03-20T21:24:48.047Z,99.90
2019-03-20T21:27:56.600Z,99.90
2019-03-20T21:30:58.058Z,99.90
2019-03-20T21:34:14.359Z,99.90
2019-03-20T21:37:20.970Z,99.90
2019-03-20T21:39:51.069Z,99.90
2019-03-20T21:43:16.634Z,99.90
2019-03-20T21:46:48.236Z,99.90
2019-03-20T21:49:18.408Z,99.90
2019-03-20T21:51:48.542Z,99.90
2019-03-20T21:55:02.274Z,99.90
2019-03-20T21:57:54.551Z,99.90
2019-03-20T22:00:59.619Z,99.90
2019-03-20T22:03:29.788Z,99.90
2019-03-20T22:06:38.595Z,99.90
2019-03-20T22:09:49.337Z,99.90
2019-03-20T22:12:26.340Z,99.90
2019-03-20T22:15:20.686Z,99.90
2019-03-20T22:18:21.080Z,99.90
2019-03-20T22:21:13.191Z,99.90
2019-03-20T22:24:41.774Z,99.90
2019-03-20T22:27:47.934Z,99.90
2019-03-20T22:30:18.477Z,99.90
2019-03-20T22:33:22.764Z,99.90
2019-03-20T22:36:06.558Z,99.90
2019-03-20T22:39:23.483Z,99.90
2019-03-20T22:42:17.173Z,99.90
2019-03-20T22:45:12.533Z,99.90
2019-03-20T22:48:30.653Z,99.90
2019-03-20T22:51:44.389Z,99.90
2019-03-20T22:55:04.934Z,99.90
2019-03-20T22:58:12.071Z,99.90
2019-03-20T23:00:42.295Z,99.90
2019-03-20T23:03:17.184Z,99.90
2019-03-20T23:05:47.352Z,99.90
2019-03-20T23:08:17.710Z,99.90
2019-03-20T23:10:49.751Z,99.90
2019-03-20T23:13:19.889Z,99.90
2019-03-20T23:15:50.406Z,99.90
2019-03-20T23:18:20.646Z,99.90
2019-03-20T23:20:50.828Z,99.90
2019-03-20T23:23:20.967Z,99.90
2019-03-20T23:25:51.124Z,99.90
2019-03-20T23:28:21.480Z,99.90
2019-03-20T23:30:51.645Z,99.90
2019-03-20T23:33:21.814Z,99.90
2019-03-20T23:35:51.950Z,99.90
2019-03-20T23:38:22.094Z,99.90
2019-03-20T23:40:52.240Z,99.90
2019-03-20T23:43:22.368Z,99.90
2019-03-20T23:45:52.511Z,99.90
2019-03-20T23:48:26.803Z,99.90
2019-03-20T23:51:00.528Z,99.90
2019-03-20T23:53:30.818Z,99.90
2019-03-20T23:56:00.949Z,99.90
2019-03-20T23:58:31.097Z,99.90
